createdAt,value
2022-08-16T00:01:25.033Z,95922.41
2022-08-16T00:04:18.476Z,95927.09
2022-08-16T00:07:09.355Z,95933.94
2022-08-16T00:10:01.235Z,95928.56
2022-08-16T00:12:51.386Z,95925.50
2022-08-16T00:15:51.740Z,95933.44
2022-08-16T00:18:43.994Z,95930.69
2022-08-16T00:21:33.942Z,95930.69
2022-08-16T00:24:31.392Z,95927.78
2022-08-16T00:27:24.185Z,95924.84
2022-08-16T00:30:28.513Z,95932.69
2022-08-16T00:33:18.613Z,95937.72
2022-08-16T00:36:08.900Z,95935.13
2022-08-16T00:38:57.804Z,95937.38
2022-08-16T00:41:49.745Z,95939.53
2022-08-16T00:44:42.520Z,95937.03
2022-08-16T00:47:31.750Z,95940.41
2022-08-16T00:50:36.032Z,95942.06
2022-08-16T00:53:25.950Z,95943.69
2022-08-16T00:56:57.131Z,95931.81
2022-08-16T00:59:33.008Z,95934.25
2022-08-16T01:02:31.504Z,95931.66
2022-08-16T01:05:22.792Z,95920.19
2022-08-16T01:08:35.408Z,95932.16
2022-08-16T01:11:27.112Z,95934.09
2022-08-16T01:14:25.082Z,95937.84
2022-08-16T01:17:20.883Z,95934.91
2022-08-16T01:20:23.805Z,95931.34
2022-08-16T01:23:18.319Z,95936.84
2022-08-16T01:26:33.781Z,95935.91
2022-08-16T01:29:24.358Z,95935.09
2022-08-16T01:32:38.987Z,95932.66
2022-08-16T01:35:35.371Z,95931.00
2022-08-16T01:38:33.256Z,95932.63
2022-08-16T01:41:26.572Z,95920.00
2022-08-16T01:44:21.055Z,95922.41
2022-08-16T01:47:10.774Z,95918.03
2022-08-16T01:50:42.407Z,95907.22
2022-08-16T01:53:11.936Z,95916.44
2022-08-16T01:56:27.675Z,95901.56
2022-08-16T01:59:17.850Z,95912.88
2022-08-16T02:05:16.592Z,95914.81
2022-08-16T02:08:08.727Z,95912.72
2022-08-16T02:11:17.792Z,95912.72
2022-08-16T02:14:18.231Z,95916.75
2022-08-16T02:17:12.871Z,95915.81
2022-08-16T02:20:11.655Z,95915.66
2022-08-16T02:23:05.900Z,95915.00
2022-08-16T02:25:54.936Z,95908.84
2022-08-16T02:28:47.294Z,95903.97
2022-08-16T02:32:04.577Z,95908.81
2022-08-16T02:34:47.627Z,95897.31
2022-08-16T02:37:52.788Z,95900.22
2022-08-16T02:40:45.406Z,95885.16
2022-08-16T02:43:36.316Z,95891.97
2022-08-16T02:46:30.164Z,95894.41
2022-08-16T02:49:58.542Z,95885.97
2022-08-16T02:52:35.103Z,95890.84
2022-08-16T02:55:41.321Z,95896.16
2022-08-16T02:58:32.617Z,95895.81
2022-08-16T03:01:37.106Z,95887.41
2022-08-16T03:04:51.934Z,95888.50
2022-08-16T03:07:50.541Z,95887.47
2022-08-16T03:10:41.361Z,95895.06
2022-08-16T03:13:40.002Z,95895.66
2022-08-16T03:16:38.470Z,95907.31
2022-08-16T03:19:48.068Z,95910.84
2022-08-16T03:22:47.211Z,95907.09
2022-08-16T03:25:41.058Z,95904.47
2022-08-16T03:28:34.630Z,95909.13
2022-08-16T03:31:25.303Z,95910.94
2022-08-16T03:34:24.097Z,95914.84
2022-08-16T03:37:12.974Z,95904.81
2022-08-16T03:40:06.459Z,95915.06
2022-08-16T03:43:19.231Z,95909.56
2022-08-16T03:46:10.804Z,95920.41
2022-08-16T03:49:00.561Z,95917.50
2022-08-16T03:51:52.090Z,95915.63
2022-08-16T03:54:53.408Z,95918.81
2022-08-16T03:57:52.293Z,95922.53
2022-08-16T04:00:43.210Z,95930.19
2022-08-16T04:03:37.726Z,95918.97
2022-08-16T04:06:26.918Z,95931.94
2022-08-16T04:09:16.639Z,95920.06
2022-08-16T04:12:10.363Z,95922.13
2022-08-16T04:15:07.811Z,95930.34
2022-08-16T04:18:01.998Z,95927.47
2022-08-16T04:20:53.647Z,95931.19
2022-08-16T04:23:48.346Z,95928.28
2022-08-16T04:26:37.796Z,95923.59
2022-08-16T04:29:46.126Z,95932.53
2022-08-16T04:32:40.983Z,95907.53
2022-08-16T04:35:34.075Z,95926.81
2022-08-16T04:38:24.263Z,95939.41
2022-08-16T04:41:14.745Z,95938.09
2022-08-16T04:44:32.614Z,95949.97
2022-08-16T04:47:21.390Z,95966.88
2022-08-16T04:50:19.064Z,95966.28
2022-08-16T04:53:22.880Z,95960.25
2022-08-16T04:56:16.483Z,95961.88
2022-08-16T04:59:08.324Z,95962.41
2022-08-16T05:01:58.509Z,95966.13
2022-08-16T05:04:48.470Z,95955.97
2022-08-16T05:07:39.116Z,95944.59
2022-08-16T05:10:47.926Z,95954.34
2022-08-16T05:13:42.076Z,95956.78
2022-08-16T05:16:34.824Z,95961.06
2022-08-16T05:19:27.963Z,95936.34
2022-08-16T05:22:36.336Z,95961.13
2022-08-16T05:25:41.340Z,95963.41
2022-08-16T05:28:37.584Z,95960.50
2022-08-16T05:31:30.734Z,95966.50
2022-08-16T05:34:22.274Z,95964.22
2022-08-16T05:37:16.120Z,95973.00
2022-08-16T05:40:13.152Z,95960.75
2022-08-16T05:43:05.212Z,95965.28
2022-08-16T05:45:55.927Z,95973.28
2022-08-16T05:48:46.158Z,95971.66
2022-08-16T05:51:46.029Z,95979.09
2022-08-16T05:54:44.383Z,95976.88
2022-08-16T05:57:36.156Z,95983.88
2022-08-16T06:00:26.970Z,95981.94
2022-08-16T06:03:17.784Z,95982.41
2022-08-16T06:06:28.169Z,95980.94
2022-08-16T06:09:19.910Z,95982.56
2022-08-16T06:12:09.876Z,95990.38
2022-08-16T06:15:04.306Z,95982.47
2022-08-16T06:18:00.513Z,95987.50
2022-08-16T06:20:55.166Z,95992.69
2022-08-16T06:23:48.620Z,95993.81
2022-08-16T06:26:44.992Z,95993.03
2022-08-16T06:29:50.292Z,95999.19
2022-08-16T06:32:42.888Z,95996.25
2022-08-16T06:35:15.764Z,96001.97
2022-08-16T06:37:51.269Z,96007.84
2022-08-16T06:40:22.221Z,96012.22
2022-08-16T06:43:03.080Z,96001.22
2022-08-16T06:45:43.696Z,96006.59
2022-08-16T06:48:21.234Z,96003.03
2022-08-16T06:51:05.552Z,96009.22
2022-08-16T06:53:36.397Z,96007.97
2022-08-16T06:56:14.929Z,96009.72
2022-08-16T06:59:03.502Z,96006.03
2022-08-16T07:01:53.684Z,96011.41
2022-08-16T07:04:32.639Z,96008.66
2022-08-16T07:07:11.897Z,96007.66
2022-08-16T07:09:44.570Z,96003.97
2022-08-16T07:12:15.355Z,96001.88
2022-08-16T07:14:47.869Z,96010.16
2022-08-16T07:17:21.853Z,96008.69
2022-08-16T07:20:29.377Z,96010.31
2022-08-16T07:22:59.015Z,96005.13
2022-08-16T07:25:34.276Z,96014.75
2022-08-16T07:28:12.111Z,96005.00
2022-08-16T07:30:49.970Z,96009.56
2022-08-16T07:33:52.776Z,96009.72
2022-08-16T07:36:21.639Z,96007.28
2022-08-16T07:38:55.583Z,96009.72
2022-08-16T07:41:24.567Z,96010.53
2022-08-16T07:44:00.550Z,96009.72
2022-08-16T07:46:38.947Z,96017.16
2022-08-16T07:49:19.371Z,96014.56
2022-08-16T07:51:48.545Z,96013.41
2022-08-16T07:54:32.277Z,96003.19
2022-08-16T07:57:11.333Z,96005.78
2022-08-16T07:59:45.664Z,96011.31
2022-08-16T08:02:20.290Z,96012.09
2022-08-16T08:04:54.873Z,96014.00
2022-08-16T08:07:28.106Z,96018.22
2022-08-16T08:09:59.271Z,96019.16
2022-08-16T08:12:31.557Z,96016.81
2022-08-16T08:15:05.889Z,96006.22
2022-08-16T08:17:43.986Z,96008.66
2022-08-16T08:20:28.309Z,96022.91
2022-08-16T08:23:01.613Z,96028.72
2022-08-16T08:25:54.905Z,96020.84
2022-08-16T08:28:26.731Z,96014.78
2022-08-16T08:31:02.985Z,96019.59
2022-08-16T08:33:36.535Z,96027.50
2022-08-16T08:36:11.908Z,96020.28
2022-08-16T08:38:53.429Z,96026.38
2022-08-16T08:41:29.619Z,96026.19
2022-08-16T08:44:01.281Z,96018.97
2022-08-16T08:47:00.151Z,96028.59
2022-08-16T08:49:50.295Z,96023.25
2022-08-16T08:52:33.683Z,96031.75
2022-08-16T08:55:10.723Z,96026.94
2022-08-16T08:57:43.829Z,96031.25
2022-08-16T09:00:31.883Z,96030.88
2022-08-16T09:03:19.132Z,96034.34
2022-08-16T09:05:51.960Z,96032.41
2022-08-16T09:08:22.578Z,96029.78
2022-08-16T09:11:03.215Z,96027.94
2022-08-16T09:13:34.527Z,96030.84
2022-08-16T09:16:05.152Z,96028.53
2022-08-16T09:18:35.761Z,96027.97
2022-08-16T09:21:09.531Z,96032.56
2022-08-16T09:23:39.757Z,96024.91
2022-08-16T09:26:44.066Z,96029.09
2022-08-16T09:29:15.825Z,96029.28
2022-08-16T09:31:53.464Z,96031.19
2022-08-16T09:34:22.280Z,96033.81
2022-08-16T09:36:54.579Z,96026.50
2022-08-16T09:39:23.981Z,96031.19
2022-08-16T09:41:54.346Z,96029.19
2022-08-16T09:45:09.735Z,96029.84
2022-08-16T09:47:14.819Z,96030.97
2022-08-16T09:49:43.628Z,96031.31
2022-08-16T09:52:22.379Z,96027.91
2022-08-16T09:54:51.742Z,96041.09
2022-08-16T09:57:20.486Z,96034.06
2022-08-16T09:59:55.999Z,96020.59
2022-08-16T10:02:27.860Z,96022.22
2022-08-16T10:04:58.560Z,96027.66
2022-08-16T10:07:44.399Z,96027.06
2022-08-16T10:10:30.387Z,96021.84
2022-08-16T10:13:16.344Z,96019.13
2022-08-16T10:15:55.680Z,96016.06
2022-08-16T10:19:02.011Z,96024.56
2022-08-16T10:21:17.315Z,96015.03
2022-08-16T10:23:48.595Z,96020.47
2022-08-16T10:27:16.244Z,96021.25
2022-08-16T10:29:06.900Z,96007.03
2022-08-16T10:31:44.241Z,96013.91
2022-08-16T10:34:30.999Z,96016.66
2022-08-16T10:37:01.966Z,96016.34
2022-08-16T10:39:40.547Z,96016.69
2022-08-16T10:42:13.338Z,96023.44
2022-08-16T10:44:42.720Z,96019.50
2022-08-16T10:47:24.377Z,96019.69
2022-08-16T10:49:53.014Z,96015.59
2022-08-16T10:52:24.332Z,96007.28
2022-08-16T10:57:43.225Z,96003.81
2022-08-16T11:00:22.307Z,96012.41
2022-08-16T11:02:57.740Z,96007.34
2022-08-16T11:08:31.274Z,96018.91
2022-08-16T11:11:11.824Z,96001.31
2022-08-16T11:14:11.223Z,96001.41
2022-08-16T11:19:28.262Z,96007.47
2022-08-16T11:22:23.158Z,96008.69
2022-08-16T11:25:11.955Z,96003.47
2022-08-16T11:27:37.595Z,96009.09
2022-08-16T11:30:12.283Z,96003.88
2022-08-16T11:32:48.774Z,96009.47
2022-08-16T11:35:43.416Z,96004.66
2022-08-16T11:38:46.897Z,95987.38
2022-08-16T11:41:03.985Z,96007.38
2022-08-16T11:43:34.971Z,96008.56
2022-08-16T11:46:45.100Z,96002.94
2022-08-16T11:48:57.363Z,96002.53
2022-08-16T11:51:27.377Z,96005.31
2022-08-16T11:53:57.236Z,96008.88
2022-08-16T11:56:39.732Z,96011.03
2022-08-16T11:59:16.007Z,96008.25
2022-08-16T12:01:59.182Z,96003.03
2022-08-16T12:04:29.199Z,96008.69
2022-08-16T12:07:00.202Z,96008.28
2022-08-16T12:09:30.616Z,96011.41
2022-08-16T12:12:03.091Z,96004.84
2022-08-16T12:14:35.529Z,96000.50
2022-08-16T12:17:08.500Z,96005.28
2022-08-16T12:19:37.135Z,95996.00
2022-08-16T12:22:19.047Z,95994.13
2022-08-16T12:24:52.126Z,95990.53
2022-08-16T12:27:24.522Z,95994.50
2022-08-16T12:29:54.025Z,95992.59
2022-08-16T12:32:38.287Z,95984.28
2022-08-16T12:35:14.387Z,95987.88
2022-08-16T12:37:46.262Z,95982.91
2022-08-16T12:40:25.009Z,95977.31
2022-08-16T12:42:59.718Z,95980.06
2022-08-16T12:45:31.792Z,95980.84
2022-08-16T12:48:35.034Z,95979.34
2022-08-16T12:51:10.902Z,95973.34
2022-08-16T12:53:52.027Z,95972.97
2022-08-16T12:56:22.167Z,95969.56
2022-08-16T12:58:55.919Z,95970.19
2022-08-16T13:01:29.886Z,95972.72
2022-08-16T13:04:20.800Z,95970.59
2022-08-16T13:06:50.411Z,95971.53
2022-08-16T13:09:26.022Z,95973.53
2022-08-16T13:12:04.351Z,95965.63
2022-08-16T13:14:38.879Z,95974.00
2022-08-16T13:17:14.205Z,95977.47
2022-08-16T13:25:20.882Z,95968.50
2022-08-16T13:28:02.308Z,95963.34
2022-08-16T13:30:41.162Z,95952.72
2022-08-16T13:33:13.395Z,95954.00
2022-08-16T13:35:45.363Z,95943.06
2022-08-16T13:38:24.360Z,95956.19
2022-08-16T13:40:57.676Z,95946.94
2022-08-16T13:43:27.281Z,95935.31
2022-08-16T13:45:56.456Z,95942.59
2022-08-16T13:48:25.945Z,95947.94
2022-08-16T13:51:00.570Z,95950.16
2022-08-16T13:53:32.972Z,95956.28
2022-08-16T13:56:02.746Z,95943.78
2022-08-16T13:58:36.677Z,95944.38
2022-08-16T14:01:09.763Z,95940.28
2022-08-16T14:03:40.044Z,95935.09
2022-08-16T14:06:10.989Z,95938.41
2022-08-16T14:08:42.211Z,95941.72
2022-08-16T14:11:14.412Z,95943.59
2022-08-16T14:13:44.638Z,95943.28
2022-08-16T14:16:23.478Z,95942.97
2022-08-16T14:18:53.626Z,95932.34
2022-08-16T14:21:23.876Z,95940.59
2022-08-16T14:23:53.242Z,95936.81
2022-08-16T14:26:24.983Z,95944.00
2022-08-16T14:28:54.610Z,95937.59
2022-08-16T14:31:27.088Z,95930.50
2022-08-16T14:33:55.948Z,95932.47
2022-08-16T14:36:29.518Z,95937.78
2022-08-16T14:38:59.385Z,95921.88
2022-08-16T14:41:29.998Z,95929.00
2022-08-16T14:43:59.129Z,95934.06
2022-08-16T14:46:27.534Z,95923.78
2022-08-16T14:48:56.499Z,95917.34
2022-08-16T14:51:27.391Z,95916.56
2022-08-16T14:53:57.382Z,95922.47
2022-08-16T14:56:38.976Z,95914.69
2022-08-16T14:59:14.224Z,95913.72
2022-08-16T15:01:58.841Z,95915.59
2022-08-16T15:04:39.653Z,95901.41
2022-08-16T15:07:18.253Z,95915.16
2022-08-16T15:10:00.400Z,95913.25
2022-08-16T15:12:33.993Z,95913.78
2022-08-16T15:15:12.466Z,95913.13
2022-08-16T15:17:54.213Z,95907.91
2022-08-16T15:20:29.509Z,95904.16
2022-08-16T15:22:59.853Z,95899.41
2022-08-16T15:25:32.192Z,95907.69
2022-08-16T15:28:04.762Z,95903.09
2022-08-16T15:30:57.082Z,95908.03
2022-08-16T15:33:27.771Z,95898.19
2022-08-16T15:35:58.370Z,95899.44
2022-08-16T15:38:43.585Z,95901.06
2022-08-16T15:41:49.938Z,95889.00
2022-08-16T15:44:22.170Z,95890.63
2022-08-16T15:46:58.500Z,95898.47
2022-08-16T15:49:34.641Z,95892.13
2022-08-16T15:52:10.447Z,95894.13
2022-08-16T15:54:53.678Z,95885.09
2022-08-16T15:57:25.468Z,95889.47
2022-08-16T15:59:55.646Z,95885.34
2022-08-16T16:02:30.543Z,95884.56
2022-08-16T16:05:02.376Z,95888.59
2022-08-16T16:07:34.033Z,95895.78
2022-08-16T16:10:13.274Z,95889.34
2022-08-16T16:12:51.285Z,95886.31
2022-08-16T16:15:26.113Z,95886.34
2022-08-16T16:18:09.446Z,95888.69
2022-08-16T16:20:42.284Z,95889.44
2022-08-16T16:23:12.492Z,95884.59
2022-08-16T16:25:43.808Z,95884.53
2022-08-16T16:29:04.973Z,95883.22
2022-08-16T16:31:08.251Z,95883.13
2022-08-16T16:33:41.930Z,95886.22
2022-08-16T16:36:15.357Z,95891.41
2022-08-16T16:38:47.627Z,95881.97
2022-08-16T16:41:20.476Z,95878.44
2022-08-16T16:43:53.326Z,95881.25
2022-08-16T16:46:42.063Z,95871.66
2022-08-16T16:49:15.095Z,95878.03
2022-08-16T16:51:49.843Z,95877.72
2022-08-16T16:54:27.862Z,95878.59
2022-08-16T16:56:58.764Z,95870.31
2022-08-16T16:59:28.474Z,95879.97
2022-08-16T17:02:41.232Z,95877.13
2022-08-16T17:04:49.818Z,95877.13
2022-08-16T17:07:24.104Z,95875.94
2022-08-16T17:09:53.748Z,95881.16
2022-08-16T17:12:25.479Z,95878.38
2022-08-16T17:15:12.673Z,95871.59
2022-08-16T17:17:59.811Z,95877.94
2022-08-16T17:20:31.153Z,95877.56
2022-08-16T17:23:01.190Z,95880.38
2022-08-16T17:25:36.636Z,95883.19
2022-08-16T17:28:58.651Z,95887.59
2022-08-16T17:30:58.504Z,95890.41
2022-08-16T17:33:36.927Z,95882.78
2022-08-16T17:36:36.590Z,95884.78
2022-08-16T17:39:07.979Z,95884.38
2022-08-16T17:41:38.323Z,95879.19
2022-08-16T17:44:08.655Z,95886.78
2022-08-16T17:46:51.404Z,95884.38
2022-08-16T17:49:21.984Z,95886.81
2022-08-16T17:51:51.731Z,95896.78
2022-08-16T17:54:30.811Z,95899.56
2022-08-16T17:57:00.420Z,95906.34
2022-08-16T17:59:29.856Z,95902.28
2022-08-16T18:01:59.330Z,95895.78
2022-08-16T18:04:49.861Z,95900.47
2022-08-16T18:07:17.859Z,95896.75
2022-08-16T18:09:46.256Z,95894.25
2022-08-16T18:12:19.858Z,95903.34
2022-08-16T18:15:12.055Z,95904.00
2022-08-16T18:17:40.956Z,95904.31
2022-08-16T18:20:33.264Z,95907.84
2022-08-16T18:23:07.975Z,95900.53
2022-08-16T18:25:37.418Z,95907.16
2022-08-16T18:28:06.701Z,95907.81
2022-08-16T18:30:35.056Z,95914.09
2022-08-16T18:33:03.556Z,95908.31
2022-08-16T18:35:32.111Z,95909.31
2022-08-16T18:38:00.606Z,95912.38
2022-08-16T18:40:31.867Z,95916.69
2022-08-16T18:43:01.980Z,95906.56
2022-08-16T18:45:35.321Z,95907.97
2022-08-16T18:48:06.636Z,95914.59
2022-08-16T18:50:59.632Z,95912.78
2022-08-16T18:53:26.887Z,95909.00
2022-08-16T18:56:00.844Z,95913.31
2022-08-16T18:58:31.037Z,95916.25
2022-08-16T19:01:00.258Z,95924.78
2022-08-16T19:03:31.164Z,95920.91
2022-08-16T19:06:02.350Z,95919.28
2022-08-16T19:08:32.673Z,95929.38
2022-08-16T19:11:02.893Z,95928.69
2022-08-16T19:13:33.407Z,95927.44
2022-08-16T19:16:04.301Z,95929.00
2022-08-16T19:18:36.565Z,95938.34
2022-08-16T19:21:06.738Z,95938.22
2022-08-16T19:23:37.426Z,95926.34
2022-08-16T19:26:10.211Z,95934.41
2022-08-16T19:28:58.306Z,95939.31
2022-08-16T19:31:31.491Z,95941.13
2022-08-16T19:34:00.642Z,95940.06
2022-08-16T19:36:35.988Z,95943.13
2022-08-16T19:39:08.821Z,95958.78
2022-08-16T19:41:42.020Z,95953.50
2022-08-16T19:44:11.348Z,95956.91
2022-08-16T19:46:41.746Z,95953.09
2022-08-16T19:49:10.196Z,95954.16
2022-08-16T19:51:45.446Z,95957.19
2022-08-16T19:54:13.896Z,95957.97
2022-08-16T19:56:43.704Z,95960.25
2022-08-16T19:59:19.238Z,95968.13
2022-08-16T20:01:51.900Z,95966.53
2022-08-16T20:04:21.642Z,95972.00
2022-08-16T20:06:50.491Z,95965.09
2022-08-16T20:09:22.457Z,95971.28
2022-08-16T20:11:53.510Z,95969.47
2022-08-16T20:14:25.422Z,95970.97
2022-08-16T20:16:56.827Z,95970.34
2022-08-16T20:19:27.117Z,95974.97
2022-08-16T20:22:01.721Z,95985.63
2022-08-16T20:24:34.596Z,95968.91
2022-08-16T20:27:07.883Z,95988.28
2022-08-16T20:29:37.706Z,95992.47
2022-08-16T20:32:08.506Z,95990.03
2022-08-16T20:34:37.476Z,95980.78
2022-08-16T20:37:06.340Z,95981.41
2022-08-16T20:39:35.064Z,95986.84
2022-08-16T20:42:04.836Z,95990.75
2022-08-16T20:44:33.959Z,95996.31
2022-08-16T20:47:02.343Z,95996.09
2022-08-16T20:49:30.751Z,95986.53
2022-08-16T20:51:59.837Z,95988.03
2022-08-16T20:54:29.872Z,95981.56
2022-08-16T20:56:58.804Z,95987.97
2022-08-16T20:59:28.874Z,95971.47
2022-08-16T21:01:59.570Z,95988.09
2022-08-16T21:04:30.115Z,95988.22
2022-08-16T21:06:59.817Z,95991.25
2022-08-16T21:09:32.406Z,95995.84
2022-08-16T21:12:03.491Z,95996.56
2022-08-16T21:14:34.390Z,95997.81
2022-08-16T21:17:03.863Z,95997.09
2022-08-16T21:19:33.870Z,96002.41
2022-08-16T21:22:12.354Z,96002.88
2022-08-16T21:24:41.083Z,96004.28
2022-08-16T21:27:09.772Z,96005.06
2022-08-16T21:29:43.420Z,96014.94
2022-08-16T21:32:14.814Z,96011.63
2022-08-16T21:34:43.678Z,96010.22
2022-08-16T21:37:15.471Z,96000.16
2022-08-16T21:39:45.788Z,96005.09
2022-08-16T21:42:17.280Z,95995.13
2022-08-16T21:44:47.044Z,95998.38
2022-08-16T21:47:16.251Z,95997.91
2022-08-16T21:49:44.623Z,95999.88
2022-08-16T21:52:26.464Z,96006.28
2022-08-16T21:54:56.900Z,96003.84
2022-08-16T21:57:26.107Z,96000.66
2022-08-16T21:59:56.932Z,95998.44
2022-08-16T22:02:35.762Z,95998.63
2022-08-16T22:05:07.915Z,96002.28
2022-08-16T22:07:36.375Z,96001.56
2022-08-16T22:11:06.899Z,95998.31
2022-08-16T22:12:55.032Z,95998.97
2022-08-16T22:15:26.062Z,96003.97
2022-08-16T22:17:56.567Z,96002.88
2022-08-16T22:20:26.441Z,96005.03
2022-08-16T22:23:06.985Z,95999.38
2022-08-16T22:25:35.771Z,96012.13
2022-08-16T22:28:05.267Z,96014.06
2022-08-16T22:30:35.852Z,96013.91
2022-08-16T22:33:09.290Z,96005.63
2022-08-16T22:35:42.808Z,96006.31
2022-08-16T22:38:55.527Z,96005.03
2022-08-16T22:41:00.871Z,96002.56
2022-08-16T22:43:30.283Z,96000.84
2022-08-16T22:46:00.637Z,96006.22
2022-08-16T22:48:29.014Z,96006.56
2022-08-16T22:50:58.247Z,96002.50
2022-08-16T22:53:26.922Z,95998.97
2022-08-16T22:55:57.198Z,96003.22
2022-08-16T22:58:34.202Z,95999.19
2022-08-16T23:01:07.733Z,95998.56
2022-08-16T23:03:37.610Z,95993.56
2022-08-16T23:06:07.503Z,95988.38
2022-08-16T23:08:40.556Z,95991.28
2022-08-16T23:11:12.444Z,95991.66
2022-08-16T23:13:52.795Z,95995.41
2022-08-16T23:16:32.373Z,96000.63
2022-08-16T23:19:05.685Z,95998.09
2022-08-16T23:21:37.435Z,95996.34
2022-08-16T23:24:07.113Z,95988.38
2022-08-16T23:26:46.231Z,95989.06
2022-08-16T23:29:24.367Z,95984.50
2022-08-16T23:31:59.859Z,95977.50
2022-08-16T23:34:29.790Z,95982.41
2022-08-16T23:36:58.202Z,95978.03
2022-08-16T23:39:27.363Z,95980.94
2022-08-16T23:41:55.814Z,95975.25
2022-08-16T23:44:56.922Z,95971.09
2022-08-16T23:47:14.226Z,95972.03
2022-08-16T23:49:56.418Z,95975.44
2022-08-16T23:52:54.638Z,95973.66
2022-08-16T23:55:20.370Z,95976.59
2022-08-16T23:57:49.047Z,95972.22
